sensor_id;sensor_type;location;lat;lon;timestamp;P1;durP1;ratioP1;P2;durP2;ratioP2
20271;SDS011;10295;49.812;9.866;2022-10-16T00:01:12;5.83;;;1.63;;
20271;SDS011;10295;49.812;9.866;2022-10-16T00:03:40;7.73;;;1.53;;
20271;SDS011;10295;49.812;9.866;2022-10-16T00:06:07;4.50;;;1.50;;
20271;SDS011;10295;49.812;9.866;2022-10-16T00:08:35;8.87;;;1.80;;
20271;SDS011;10295;49.812;9.866;2022-10-16T00:11:06;4.43;;;1.53;;
20271;SDS011;10295;49.812;9.866;2022-10-16T00:13:35;3.50;;;1.53;;
20271;SDS011;10295;49.812;9.866;2022-10-16T00:16:02;6.17;;;1.87;;
20271;SDS011;10295;49.812;9.866;2022-10-16T00:18:30;5.70;;;1.90;;
20271;SDS011;10295;49.812;9.866;2022-10-16T00:21:02;7.00;;;2.03;;
20271;SDS011;10295;49.812;9.866;2022-10-16T00:23:29;5.90;;;2.10;;
20271;SDS011;10295;49.812;9.866;2022-10-16T00:25:57;6.30;;;2.03;;
20271;SDS011;10295;49.812;9.866;2022-10-16T00:28:25;8.20;;;2.13;;
20271;SDS011;10295;49.812;9.866;2022-10-16T00:30:52;5.47;;;2.07;;
20271;SDS011;10295;49.812;9.866;2022-10-16T00:33:19;9.47;;;2.07;;
20271;SDS011;10295;49.812;9.866;2022-10-16T00:35:47;9.57;;;2.40;;
20271;SDS011;10295;49.812;9.866;2022-10-16T00:38:14;6.20;;;2.70;;
20271;SDS011;10295;49.812;9.866;2022-10-16T00:40:41;6.70;;;2.77;;
20271;SDS011;10295;49.812;9.866;2022-10-16T00:43:52;7.20;;;2.90;;
20271;SDS011;10295;49.812;9.866;2022-10-16T00:46:00;8.67;;;3.03;;
20271;SDS011;10295;49.812;9.866;2022-10-16T00:48:27;7.70;;;3.10;;
20271;SDS011;10295;49.812;9.866;2022-10-16T00:50:54;7.77;;;3.23;;
20271;SDS011;10295;49.812;9.866;2022-10-16T00:53:23;7.90;;;3.20;;
20271;SDS011;10295;49.812;9.866;2022-10-16T00:55:50;7.33;;;3.03;;
20271;SDS011;10295;49.812;9.866;2022-10-16T00:58:17;9.37;;;3.00;;
20271;SDS011;10295;49.812;9.866;2022-10-16T01:00:44;8.63;;;3.37;;
20271;SDS011;10295;49.812;9.866;2022-10-16T01:03:22;14.03;;;6.23;;
20271;SDS011;10295;49.812;9.866;2022-10-16T01:05:51;13.63;;;4.70;;
20271;SDS011;10295;49.812;9.866;2022-10-16T01:08:26;9.73;;;3.33;;
20271;SDS011;10295;49.812;9.866;2022-10-16T01:10:57;11.23;;;3.20;;
20271;SDS011;10295;49.812;9.866;2022-10-16T01:13:31;8.00;;;2.30;;
20271;SDS011;10295;49.812;9.866;2022-10-16T01:16:05;8.17;;;2.60;;
20271;SDS011;10295;49.812;9.866;2022-10-16T01:18:36;6.77;;;1.70;;
20271;SDS011;10295;49.812;9.866;2022-10-16T01:21:06;6.40;;;1.50;;
20271;SDS011;10295;49.812;9.866;2022-10-16T01:31:22;3.53;;;0.87;;
20271;SDS011;10295;49.812;9.866;2022-10-16T01:33:53;2.97;;;0.90;;
20271;SDS011;10295;49.812;9.866;2022-10-16T01:36:21;3.47;;;0.73;;
20271;SDS011;10295;49.812;9.866;2022-10-16T01:38:51;1.67;;;0.90;;
20271;SDS011;10295;49.812;9.866;2022-10-16T01:44:20;2.73;;;1.03;;
20271;SDS011;10295;49.812;9.866;2022-10-16T01:46:50;4.03;;;0.90;;
20271;SDS011;10295;49.812;9.866;2022-10-16T01:49:18;2.30;;;0.90;;
20271;SDS011;10295;49.812;9.866;2022-10-16T01:51:47;1.97;;;1.00;;
20271;SDS011;10295;49.812;9.866;2022-10-16T01:54:16;2.33;;;0.93;;
20271;SDS011;10295;49.812;9.866;2022-10-16T01:56:45;2.13;;;0.70;;
20271;SDS011;10295;49.812;9.866;2022-10-16T01:59:14;4.60;;;0.97;;
20271;SDS011;10295;49.812;9.866;2022-10-16T02:01:43;3.67;;;0.90;;
20271;SDS011;10295;49.812;9.866;2022-10-16T02:04:13;2.47;;;0.70;;
20271;SDS011;10295;49.812;9.866;2022-10-16T02:06:42;1.23;;;0.80;;
20271;SDS011;10295;49.812;9.866;2022-10-16T02:09:09;3.90;;;0.90;;
20271;SDS011;10295;49.812;9.866;2022-10-16T02:11:36;4.53;;;1.13;;
20271;SDS011;10295;49.812;9.866;2022-10-16T02:14:06;3.60;;;1.00;;
20271;SDS011;10295;49.812;9.866;2022-10-16T02:16:35;4.03;;;1.10;;
20271;SDS011;10295;49.812;9.866;2022-10-16T02:19:03;6.77;;;1.30;;
20271;SDS011;10295;49.812;9.866;2022-10-16T02:21:33;2.23;;;1.20;;
20271;SDS011;10295;49.812;9.866;2022-10-16T02:26:35;3.30;;;1.40;;
20271;SDS011;10295;49.812;9.866;2022-10-16T02:29:05;3.10;;;1.30;;
20271;SDS011;10295;49.812;9.866;2022-10-16T02:31:35;3.80;;;1.60;;
20271;SDS011;10295;49.812;9.866;2022-10-16T02:34:02;8.23;;;2.03;;
20271;SDS011;10295;49.812;9.866;2022-10-16T02:36:31;5.67;;;1.73;;
20271;SDS011;10295;49.812;9.866;2022-10-16T02:38:59;5.50;;;1.90;;
20271;SDS011;10295;49.812;9.866;2022-10-16T02:41:27;8.13;;;2.00;;
20271;SDS011;10295;49.812;9.866;2022-10-16T02:43:54;5.73;;;2.20;;
20271;SDS011;10295;49.812;9.866;2022-10-16T02:46:21;8.43;;;2.20;;
20271;SDS011;10295;49.812;9.866;2022-10-16T02:48:48;6.77;;;2.20;;
20271;SDS011;10295;49.812;9.866;2022-10-16T02:51:15;6.70;;;2.43;;
20271;SDS011;10295;49.812;9.866;2022-10-16T02:53:42;7.03;;;2.90;;
20271;SDS011;10295;49.812;9.866;2022-10-16T02:56:09;7.20;;;2.60;;
20271;SDS011;10295;49.812;9.866;2022-10-16T02:58:37;9.50;;;2.80;;
20271;SDS011;10295;49.812;9.866;2022-10-16T03:01:04;8.20;;;2.67;;
20271;SDS011;10295;49.812;9.866;2022-10-16T03:03:31;7.57;;;2.60;;
20271;SDS011;10295;49.812;9.866;2022-10-16T03:05:58;8.53;;;2.90;;
20271;SDS011;10295;49.812;9.866;2022-10-16T03:08:25;7.13;;;2.77;;
20271;SDS011;10295;49.812;9.866;2022-10-16T03:10:52;12.23;;;2.77;;
20271;SDS011;10295;49.812;9.866;2022-10-16T03:13:19;7.60;;;2.87;;
20271;SDS011;10295;49.812;9.866;2022-10-16T03:15:46;12.43;;;3.07;;
20271;SDS011;10295;49.812;9.866;2022-10-16T03:18:14;9.60;;;3.10;;
20271;SDS011;10295;49.812;9.866;2022-10-16T03:20:44;8.07;;;2.90;;
20271;SDS011;10295;49.812;9.866;2022-10-16T03:23:11;7.57;;;2.87;;
20271;SDS011;10295;49.812;9.866;2022-10-16T03:25:39;7.10;;;3.00;;
20271;SDS011;10295;49.812;9.866;2022-10-16T03:28:06;11.47;;;3.53;;
20271;SDS011;10295;49.812;9.866;2022-10-16T03:30:33;12.83;;;3.33;;
20271;SDS011;10295;49.812;9.866;2022-10-16T03:33:00;10.00;;;3.47;;
20271;SDS011;10295;49.812;9.866;2022-10-16T03:35:27;11.07;;;3.63;;
20271;SDS011;10295;49.812;9.866;2022-10-16T03:37:55;12.13;;;3.63;;
20271;SDS011;10295;49.812;9.866;2022-10-16T03:40:23;9.77;;;3.60;;
20271;SDS011;10295;49.812;9.866;2022-10-16T03:42:50;9.63;;;3.93;;
20271;SDS011;10295;49.812;9.866;2022-10-16T03:45:17;9.20;;;3.63;;
20271;SDS011;10295;49.812;9.866;2022-10-16T03:47:44;9.07;;;3.90;;
20271;SDS011;10295;49.812;9.866;2022-10-16T03:50:11;11.67;;;3.77;;
20271;SDS011;10295;49.812;9.866;2022-10-16T03:52:38;10.60;;;3.70;;
20271;SDS011;10295;49.812;9.866;2022-10-16T03:55:05;9.30;;;3.13;;
20271;SDS011;10295;49.812;9.866;2022-10-16T03:57:33;9.03;;;3.43;;
20271;SDS011;10295;49.812;9.866;2022-10-16T04:00:00;12.30;;;3.50;;
20271;SDS011;10295;49.812;9.866;2022-10-16T04:02:27;11.33;;;3.53;;
20271;SDS011;10295;49.812;9.866;2022-10-16T04:04:54;10.07;;;3.63;;
20271;SDS011;10295;49.812;9.866;2022-10-16T04:07:21;10.07;;;3.60;;
20271;SDS011;10295;49.812;9.866;2022-10-16T04:09:48;13.90;;;3.63;;
20271;SDS011;10295;49.812;9.866;2022-10-16T04:12:18;10.83;;;3.60;;
20271;SDS011;10295;49.812;9.866;2022-10-16T04:14:45;8.77;;;3.57;;
20271;SDS011;10295;49.812;9.866;2022-10-16T04:17:12;10.33;;;3.60;;
20271;SDS011;10295;49.812;9.866;2022-10-16T04:19:39;13.00;;;3.70;;
20271;SDS011;10295;49.812;9.866;2022-10-16T04:22:06;12.67;;;3.50;;
20271;SDS011;10295;49.812;9.866;2022-10-16T04:24:33;9.70;;;3.70;;
20271;SDS011;10295;49.812;9.866;2022-10-16T04:27:00;12.80;;;3.60;;
20271;SDS011;10295;49.812;9.866;2022-10-16T04:29:27;9.63;;;3.77;;
20271;SDS011;10295;49.812;9.866;2022-10-16T04:31:54;13.80;;;3.87;;
20271;SDS011;10295;49.812;9.866;2022-10-16T04:34:21;11.73;;;3.60;;
20271;SDS011;10295;49.812;9.866;2022-10-16T04:36:49;11.37;;;3.00;;
20271;SDS011;10295;49.812;9.866;2022-10-16T04:39:16;13.20;;;3.93;;
20271;SDS011;10295;49.812;9.866;2022-10-16T04:41:43;10.90;;;3.47;;
20271;SDS011;10295;49.812;9.866;2022-10-16T04:44:10;10.67;;;3.20;;
20271;SDS011;10295;49.812;9.866;2022-10-16T04:46:37;18.23;;;3.73;;
20271;SDS011;10295;49.812;9.866;2022-10-16T04:49:04;14.30;;;3.53;;
20271;SDS011;10295;49.812;9.866;2022-10-16T04:51:31;11.57;;;3.27;;
20271;SDS011;10295;49.812;9.866;2022-10-16T04:53:59;7.90;;;3.27;;
20271;SDS011;10295;49.812;9.866;2022-10-16T04:56:26;11.47;;;3.40;;
20271;SDS011;10295;49.812;9.866;2022-10-16T04:58:53;10.70;;;4.17;;
20271;SDS011;10295;49.812;9.866;2022-10-16T05:01:20;10.03;;;3.90;;
20271;SDS011;10295;49.812;9.866;2022-10-16T05:03:47;9.97;;;3.70;;
20271;SDS011;10295;49.812;9.866;2022-10-16T05:06:14;8.37;;;2.93;;
20271;SDS011;10295;49.812;9.866;2022-10-16T05:08:41;11.87;;;3.37;;
20271;SDS011;10295;49.812;9.866;2022-10-16T05:11:08;7.17;;;3.00;;
20271;SDS011;10295;49.812;9.866;2022-10-16T05:13:35;9.73;;;3.40;;
20271;SDS011;10295;49.812;9.866;2022-10-16T05:16:02;11.00;;;3.27;;
20271;SDS011;10295;49.812;9.866;2022-10-16T05:18:29;11.93;;;3.27;;
20271;SDS011;10295;49.812;9.866;2022-10-16T05:20:56;13.07;;;4.30;;
20271;SDS011;10295;49.812;9.866;2022-10-16T05:23:23;10.90;;;3.83;;
20271;SDS011;10295;49.812;9.866;2022-10-16T05:25:57;13.57;;;4.57;;
20271;SDS011;10295;49.812;9.866;2022-10-16T05:28:25;13.20;;;3.97;;
20271;SDS011;10295;49.812;9.866;2022-10-16T05:30:52;10.50;;;4.13;;
20271;SDS011;10295;49.812;9.866;2022-10-16T05:33:20;13.47;;;4.40;;
20271;SDS011;10295;49.812;9.866;2022-10-16T05:35:48;16.73;;;4.70;;
20271;SDS011;10295;49.812;9.866;2022-10-16T05:38:16;15.63;;;4.97;;
20271;SDS011;10295;49.812;9.866;2022-10-16T05:40:43;11.33;;;4.87;;
20271;SDS011;10295;49.812;9.866;2022-10-16T05:43:10;13.23;;;5.07;;
20271;SDS011;10295;49.812;9.866;2022-10-16T05:45:37;12.13;;;4.77;;
20271;SDS011;10295;49.812;9.866;2022-10-16T05:48:04;11.83;;;4.77;;
20271;SDS011;10295;49.812;9.866;2022-10-16T05:50:32;12.30;;;4.73;;
20271;SDS011;10295;49.812;9.866;2022-10-16T05:52:59;12.80;;;5.43;;
20271;SDS011;10295;49.812;9.866;2022-10-16T05:55:26;15.50;;;6.30;;
20271;SDS011;10295;49.812;9.866;2022-10-16T05:57:54;18.27;;;7.97;;
20271;SDS011;10295;49.812;9.866;2022-10-16T06:00:21;21.17;;;9.10;;
20271;SDS011;10295;49.812;9.866;2022-10-16T06:02:48;12.80;;;6.40;;
20271;SDS011;10295;49.812;9.866;2022-10-16T06:05:15;14.33;;;6.03;;
20271;SDS011;10295;49.812;9.866;2022-10-16T06:07:42;19.17;;;5.77;;
20271;SDS011;10295;49.812;9.866;2022-10-16T06:10:09;14.17;;;5.63;;
20271;SDS011;10295;49.812;9.866;2022-10-16T06:12:36;11.53;;;4.87;;
20271;SDS011;10295;49.812;9.866;2022-10-16T06:15:04;10.10;;;4.90;;
20271;SDS011;10295;49.812;9.866;2022-10-16T06:17:31;14.10;;;5.73;;
20271;SDS011;10295;49.812;9.866;2022-10-16T06:19:58;14.50;;;5.23;;
20271;SDS011;10295;49.812;9.866;2022-10-16T06:22:25;16.47;;;5.13;;
20271;SDS011;10295;49.812;9.866;2022-10-16T06:24:52;14.50;;;5.70;;
20271;SDS011;10295;49.812;9.866;2022-10-16T06:27:19;13.67;;;5.50;;
20271;SDS011;10295;49.812;9.866;2022-10-16T06:29:46;18.67;;;5.60;;
20271;SDS011;10295;49.812;9.866;2022-10-16T06:32:13;12.60;;;5.33;;
20271;SDS011;10295;49.812;9.866;2022-10-16T06:34:40;15.50;;;4.93;;
20271;SDS011;10295;49.812;9.866;2022-10-16T06:37:09;13.83;;;4.80;;
20271;SDS011;10295;49.812;9.866;2022-10-16T06:39:36;12.63;;;4.90;;
20271;SDS011;10295;49.812;9.866;2022-10-16T06:42:03;15.03;;;4.80;;
20271;SDS011;10295;49.812;9.866;2022-10-16T06:44:30;18.83;;;4.67;;
20271;SDS011;10295;49.812;9.866;2022-10-16T06:46:57;10.70;;;4.70;;
20271;SDS011;10295;49.812;9.866;2022-10-16T06:49:24;10.20;;;4.87;;
20271;SDS011;10295;49.812;9.866;2022-10-16T06:51:51;15.77;;;4.10;;
20271;SDS011;10295;49.812;9.866;2022-10-16T06:54:18;13.43;;;5.27;;
20271;SDS011;10295;49.812;9.866;2022-10-16T06:56:45;13.70;;;5.30;;
20271;SDS011;10295;49.812;9.866;2022-10-16T06:59:13;12.20;;;5.20;;
20271;SDS011;10295;49.812;9.866;2022-10-16T07:01:40;10.33;;;5.00;;
20271;SDS011;10295;49.812;9.866;2022-10-16T07:04:07;13.07;;;5.57;;
20271;SDS011;10295;49.812;9.866;2022-10-16T07:06:34;15.17;;;5.53;;
20271;SDS011;10295;49.812;9.866;2022-10-16T07:09:02;10.10;;;4.53;;
20271;SDS011;10295;49.812;9.866;2022-10-16T07:11:30;13.87;;;5.07;;
20271;SDS011;10295;49.812;9.866;2022-10-16T07:13:57;14.03;;;4.97;;
20271;SDS011;10295;49.812;9.866;2022-10-16T07:16:27;11.73;;;4.70;;
20271;SDS011;10295;49.812;9.866;2022-10-16T07:18:55;14.03;;;5.13;;
20271;SDS011;10295;49.812;9.866;2022-10-16T07:21:27;11.17;;;4.20;;
20271;SDS011;10295;49.812;9.866;2022-10-16T07:23:58;13.90;;;4.23;;
20271;SDS011;10295;49.812;9.866;2022-10-16T07:26:28;12.67;;;3.93;;
20271;SDS011;10295;49.812;9.866;2022-10-16T07:28:56;14.70;;;5.10;;
20271;SDS011;10295;49.812;9.866;2022-10-16T07:31:24;10.97;;;4.23;;
20271;SDS011;10295;49.812;9.866;2022-10-16T07:33:51;12.80;;;4.27;;
20271;SDS011;10295;49.812;9.866;2022-10-16T07:36:19;19.87;;;6.47;;
20271;SDS011;10295;49.812;9.866;2022-10-16T07:38:47;28.70;;;14.63;;
20271;SDS011;10295;49.812;9.866;2022-10-16T07:41:15;15.27;;;5.70;;
20271;SDS011;10295;49.812;9.866;2022-10-16T07:43:49;19.47;;;6.03;;
20271;SDS011;10295;49.812;9.866;2022-10-16T07:46:17;15.17;;;5.57;;
20271;SDS011;10295;49.812;9.866;2022-10-16T07:48:45;10.57;;;4.67;;
20271;SDS011;10295;49.812;9.866;2022-10-16T07:51:17;12.90;;;5.03;;
20271;SDS011;10295;49.812;9.866;2022-10-16T07:53:44;13.47;;;3.83;;
20271;SDS011;10295;49.812;9.866;2022-10-16T07:56:12;10.93;;;4.03;;
20271;SDS011;10295;49.812;9.866;2022-10-16T07:58:39;10.23;;;4.10;;
20271;SDS011;10295;49.812;9.866;2022-10-16T08:01:07;13.77;;;4.87;;
20271;SDS011;10295;49.812;9.866;2022-10-16T08:03:34;12.30;;;5.23;;
20271;SDS011;10295;49.812;9.866;2022-10-16T08:06:01;17.43;;;5.40;;
20271;SDS011;10295;49.812;9.866;2022-10-16T08:08:29;12.87;;;4.87;;
20271;SDS011;10295;49.812;9.866;2022-10-16T08:10:56;10.90;;;4.47;;
20271;SDS011;10295;49.812;9.866;2022-10-16T08:13:23;11.97;;;4.23;;
20271;SDS011;10295;49.812;9.866;2022-10-16T08:15:50;9.50;;;4.30;;
20271;SDS011;10295;49.812;9.866;2022-10-16T08:18:17;13.63;;;4.00;;
20271;SDS011;10295;49.812;9.866;2022-10-16T08:20:45;16.67;;;4.30;;
20271;SDS011;10295;49.812;9.866;2022-10-16T08:23:12;10.20;;;4.37;;
20271;SDS011;10295;49.812;9.866;2022-10-16T08:25:40;10.30;;;4.73;;
20271;SDS011;10295;49.812;9.866;2022-10-16T08:28:08;12.27;;;4.20;;
20271;SDS011;10295;49.812;9.866;2022-10-16T08:30:36;7.20;;;3.70;;
20271;SDS011;10295;49.812;9.866;2022-10-16T08:33:03;10.10;;;4.13;;
20271;SDS011;10295;49.812;9.866;2022-10-16T08:35:32;11.87;;;4.23;;
20271;SDS011;10295;49.812;9.866;2022-10-16T08:37:59;8.70;;;4.27;;
20271;SDS011;10295;49.812;9.866;2022-10-16T08:40:27;11.37;;;4.73;;
20271;SDS011;10295;49.812;9.866;2022-10-16T08:43:10;26.33;;;4.13;;
20271;SDS011;10295;49.812;9.866;2022-10-16T08:46:04;13.10;;;4.30;;
20271;SDS011;10295;49.812;9.866;2022-10-16T08:48:35;12.37;;;3.53;;
20271;SDS011;10295;49.812;9.866;2022-10-16T08:51:06;10.07;;;3.23;;
20271;SDS011;10295;49.812;9.866;2022-10-16T08:53:40;9.50;;;3.50;;
20271;SDS011;10295;49.812;9.866;2022-10-16T08:56:09;10.33;;;3.17;;
20271;SDS011;10295;49.812;9.866;2022-10-16T08:58:36;10.37;;;3.43;;
20271;SDS011;10295;49.812;9.866;2022-10-16T09:01:04;9.40;;;3.20;;
20271;SDS011;10295;49.812;9.866;2022-10-16T09:06:28;9.73;;;3.00;;
20271;SDS011;10295;49.812;9.866;2022-10-16T09:09:09;10.97;;;3.37;;
20271;SDS011;10295;49.812;9.866;2022-10-16T09:17:18;9.40;;;3.67;;
20271;SDS011;10295;49.812;9.866;2022-10-16T09:19:51;8.32;;;3.22;;
20271;SDS011;10295;49.812;9.866;2022-10-16T09:22:20;9.63;;;3.00;;
20271;SDS011;10295;49.812;9.866;2022-10-16T09:24:49;10.20;;;3.50;;
20271;SDS011;10295;49.812;9.866;2022-10-16T09:27:16;11.47;;;4.57;;
20271;SDS011;10295;49.812;9.866;2022-10-16T09:29:43;12.47;;;3.20;;
20271;SDS011;10295;49.812;9.866;2022-10-16T09:32:12;9.18;;;3.22;;
20271;SDS011;10295;49.812;9.866;2022-10-16T09:34:42;8.73;;;2.80;;
20271;SDS011;10295;49.812;9.866;2022-10-16T09:37:12;9.48;;;2.72;;
20271;SDS011;10295;49.812;9.866;2022-10-16T09:39:52;8.97;;;2.80;;
20271;SDS011;10295;49.812;9.866;2022-10-16T09:42:20;8.13;;;2.60;;
20271;SDS011;10295;49.812;9.866;2022-10-16T09:44:48;7.43;;;2.97;;
20271;SDS011;10295;49.812;9.866;2022-10-16T09:47:17;10.23;;;4.03;;
20271;SDS011;10295;49.812;9.866;2022-10-16T09:52:23;10.07;;;3.60;;
20271;SDS011;10295;49.812;9.866;2022-10-16T09:57:24;8.77;;;3.23;;
20271;SDS011;10295;49.812;9.866;2022-10-16T09:59:52;12.93;;;3.50;;
20271;SDS011;10295;49.812;9.866;2022-10-16T10:02:24;14.23;;;4.33;;
20271;SDS011;10295;49.812;9.866;2022-10-16T10:04:53;9.90;;;4.93;;
20271;SDS011;10295;49.812;9.866;2022-10-16T10:07:24;11.27;;;4.20;;
20271;SDS011;10295;49.812;9.866;2022-10-16T10:09:53;14.33;;;5.90;;
20271;SDS011;10295;49.812;9.866;2022-10-16T10:12:24;15.40;;;5.70;;
20271;SDS011;10295;49.812;9.866;2022-10-16T10:14:53;18.13;;;4.57;;
20271;SDS011;10295;49.812;9.866;2022-10-16T10:17:27;16.13;;;4.90;;
20271;SDS011;10295;49.812;9.866;2022-10-16T10:19:56;10.10;;;3.60;;
20271;SDS011;10295;49.812;9.866;2022-10-16T10:25:19;11.73;;;2.20;;
20271;SDS011;10295;49.812;9.866;2022-10-16T10:28:04;7.90;;;2.10;;
20271;SDS011;10295;49.812;9.866;2022-10-16T10:30:49;9.90;;;2.20;;
20271;SDS011;10295;49.812;9.866;2022-10-16T10:38:38;12.97;;;2.30;;
20271;SDS011;10295;49.812;9.866;2022-10-16T10:46:44;7.63;;;2.50;;
20271;SDS011;10295;49.812;9.866;2022-10-16T11:02:47;7.93;;;1.52;;
20271;SDS011;10295;49.812;9.866;2022-10-16T11:05:24;7.25;;;1.75;;
20271;SDS011;10295;49.812;9.866;2022-10-16T11:07:58;4.88;;;1.33;;
20271;SDS011;10295;49.812;9.866;2022-10-16T11:10:27;6.32;;;1.40;;
20271;SDS011;10295;49.812;9.866;2022-10-16T11:13:10;6.35;;;1.42;;
20271;SDS011;10295;49.812;9.866;2022-10-16T11:15:41;10.32;;;1.27;;
20271;SDS011;10295;49.812;9.866;2022-10-16T11:18:15;4.10;;;1.27;;
20271;SDS011;10295;49.812;9.866;2022-10-16T11:21:26;3.38;;;0.98;;
20271;SDS011;10295;49.812;9.866;2022-10-16T11:23:44;7.75;;;1.30;;
20271;SDS011;10295;49.812;9.866;2022-10-16T11:26:17;3.53;;;1.15;;
20271;SDS011;10295;49.812;9.866;2022-10-16T11:28:49;4.10;;;1.20;;
20271;SDS011;10295;49.812;9.866;2022-10-16T11:31:19;5.35;;;1.20;;
20271;SDS011;10295;49.812;9.866;2022-10-16T11:33:51;5.20;;;1.13;;
20271;SDS011;10295;49.812;9.866;2022-10-16T11:38:51;7.28;;;1.35;;
20271;SDS011;10295;49.812;9.866;2022-10-16T11:41:23;5.85;;;1.50;;
20271;SDS011;10295;49.812;9.866;2022-10-16T11:44:09;8.43;;;1.65;;
20271;SDS011;10295;49.812;9.866;2022-10-16T11:46:42;6.32;;;1.27;;
20271;SDS011;10295;49.812;9.866;2022-10-16T11:49:31;6.22;;;1.30;;
20271;SDS011;10295;49.812;9.866;2022-10-16T11:57:21;3.78;;;1.10;;
20271;SDS011;10295;49.812;9.866;2022-10-16T11:59:54;4.80;;;1.20;;
20271;SDS011;10295;49.812;9.866;2022-10-16T12:05:18;4.18;;;1.20;;
20271;SDS011;10295;49.812;9.866;2022-10-16T12:10:24;3.17;;;0.90;;
20271;SDS011;10295;49.812;9.866;2022-10-16T12:12:53;2.35;;;0.80;;
20271;SDS011;10295;49.812;9.866;2022-10-16T12:16:03;2.33;;;0.80;;
20271;SDS011;10295;49.812;9.866;2022-10-16T12:18:24;4.38;;;0.90;;
20271;SDS011;10295;49.812;9.866;2022-10-16T12:20:55;4.70;;;0.80;;
20271;SDS011;10295;49.812;9.866;2022-10-16T12:23:30;2.00;;;0.90;;
20271;SDS011;10295;49.812;9.866;2022-10-16T12:25:58;5.25;;;1.10;;
20271;SDS011;10295;49.812;9.866;2022-10-16T12:28:27;2.08;;;0.90;;
20271;SDS011;10295;49.812;9.866;2022-10-16T12:30:58;3.53;;;1.25;;
20271;SDS011;10295;49.812;9.866;2022-10-16T12:33:36;5.00;;;1.20;;
20271;SDS011;10295;49.812;9.866;2022-10-16T12:36:05;3.22;;;0.90;;
20271;SDS011;10295;49.812;9.866;2022-10-16T12:38:37;4.25;;;1.20;;
20271;SDS011;10295;49.812;9.866;2022-10-16T12:41:08;6.13;;;1.20;;
20271;SDS011;10295;49.812;9.866;2022-10-16T12:43:44;7.78;;;1.20;;
20271;SDS011;10295;49.812;9.866;2022-10-16T12:48:40;11.05;;;2.42;;
20271;SDS011;10295;49.812;9.866;2022-10-16T12:54:04;5.85;;;1.40;;
20271;SDS011;10295;49.812;9.866;2022-10-16T12:56:43;7.97;;;2.17;;
20271;SDS011;10295;49.812;9.866;2022-10-16T12:59:15;3.38;;;1.05;;
20271;SDS011;10295;49.812;9.866;2022-10-16T13:02:03;5.05;;;1.27;;
20271;SDS011;10295;49.812;9.866;2022-10-16T13:07:19;5.60;;;1.13;;
20271;SDS011;10295;49.812;9.866;2022-10-16T13:15:27;4.45;;;1.20;;
20271;SDS011;10295;49.812;9.866;2022-10-16T13:28:19;6.45;;;1.13;;
20271;SDS011;10295;49.812;9.866;2022-10-16T13:30:52;3.10;;;1.08;;
20271;SDS011;10295;49.812;9.866;2022-10-16T13:33:21;4.57;;;1.27;;
20271;SDS011;10295;49.812;9.866;2022-10-16T13:35:53;5.15;;;1.20;;
20271;SDS011;10295;49.812;9.866;2022-10-16T13:38:28;5.05;;;1.30;;
20271;SDS011;10295;49.812;9.866;2022-10-16T13:46:00;4.10;;;1.33;;
20271;SDS011;10295;49.812;9.866;2022-10-16T13:48:28;7.13;;;1.60;;
20271;SDS011;10295;49.812;9.866;2022-10-16T13:50:59;6.40;;;1.30;;
20271;SDS011;10295;49.812;9.866;2022-10-16T13:53:27;7.32;;;1.67;;
20271;SDS011;10295;49.812;9.866;2022-10-16T13:55:54;7.45;;;1.45;;
20271;SDS011;10295;49.812;9.866;2022-10-16T13:58:21;8.07;;;1.40;;
20271;SDS011;10295;49.812;9.866;2022-10-16T14:00:53;7.72;;;1.45;;
20271;SDS011;10295;49.812;9.866;2022-10-16T14:03:20;8.15;;;1.90;;
20271;SDS011;10295;49.812;9.866;2022-10-16T14:05:57;9.05;;;3.47;;
20271;SDS011;10295;49.812;9.866;2022-10-16T14:08:26;7.45;;;2.70;;
20271;SDS011;10295;49.812;9.866;2022-10-16T14:10:54;7.78;;;1.85;;
20271;SDS011;10295;49.812;9.866;2022-10-16T14:15:55;6.45;;;2.20;;
20271;SDS011;10295;49.812;9.866;2022-10-16T14:18:25;7.97;;;2.10;;
20271;SDS011;10295;49.812;9.866;2022-10-16T14:21:04;8.55;;;2.10;;
20271;SDS011;10295;49.812;9.866;2022-10-16T14:23:36;7.75;;;1.90;;
20271;SDS011;10295;49.812;9.866;2022-10-16T14:28:37;10.85;;;1.67;;
20271;SDS011;10295;49.812;9.866;2022-10-16T14:33:45;9.57;;;1.60;;
20271;SDS011;10295;49.812;9.866;2022-10-16T14:36:13;8.50;;;1.80;;
20271;SDS011;10295;49.812;9.866;2022-10-16T14:38:43;5.13;;;1.30;;
20271;SDS011;10295;49.812;9.866;2022-10-16T14:41:15;8.10;;;1.60;;
20271;SDS011;10295;49.812;9.866;2022-10-16T14:43:42;9.85;;;1.90;;
20271;SDS011;10295;49.812;9.866;2022-10-16T14:46:19;17.92;;;6.32;;
20271;SDS011;10295;49.812;9.866;2022-10-16T14:48:53;34.95;;;14.95;;
20271;SDS011;10295;49.812;9.866;2022-10-16T14:51:22;17.02;;;6.10;;
20271;SDS011;10295;49.812;9.866;2022-10-16T14:53:49;25.08;;;10.27;;
20271;SDS011;10295;49.812;9.866;2022-10-16T14:56:20;15.43;;;7.07;;
20271;SDS011;10295;49.812;9.866;2022-10-16T14:58:48;9.40;;;3.03;;
20271;SDS011;10295;49.812;9.866;2022-10-16T15:01:16;7.70;;;1.90;;
20271;SDS011;10295;49.812;9.866;2022-10-16T15:03:44;10.77;;;2.20;;
20271;SDS011;10295;49.812;9.866;2022-10-16T15:06:11;11.98;;;2.10;;
20271;SDS011;10295;49.812;9.866;2022-10-16T15:08:39;12.05;;;3.47;;
20271;SDS011;10295;49.812;9.866;2022-10-16T15:11:18;8.85;;;2.45;;
20271;SDS011;10295;49.812;9.866;2022-10-16T15:13:46;10.93;;;3.05;;
20271;SDS011;10295;49.812;9.866;2022-10-16T15:16:14;9.65;;;2.58;;
20271;SDS011;10295;49.812;9.866;2022-10-16T15:18:42;9.23;;;1.70;;
20271;SDS011;10295;49.812;9.866;2022-10-16T15:24:08;8.85;;;1.60;;
20271;SDS011;10295;49.812;9.866;2022-10-16T15:26:36;6.88;;;1.65;;
20271;SDS011;10295;49.812;9.866;2022-10-16T15:29:03;5.45;;;1.75;;
20271;SDS011;10295;49.812;9.866;2022-10-16T15:31:31;6.22;;;1.45;;
20271;SDS011;10295;49.812;9.866;2022-10-16T15:33:58;5.03;;;1.80;;
20271;SDS011;10295;49.812;9.866;2022-10-16T15:36:31;5.13;;;1.80;;
20271;SDS011;10295;49.812;9.866;2022-10-16T15:39:00;7.03;;;1.85;;
20271;SDS011;10295;49.812;9.866;2022-10-16T15:41:27;5.50;;;1.70;;
20271;SDS011;10295;49.812;9.866;2022-10-16T15:43:54;6.45;;;1.65;;
20271;SDS011;10295;49.812;9.866;2022-10-16T15:46:22;6.22;;;1.60;;
20271;SDS011;10295;49.812;9.866;2022-10-16T15:48:50;6.15;;;1.63;;
20271;SDS011;10295;49.812;9.866;2022-10-16T15:51:17;7.05;;;1.55;;
20271;SDS011;10295;49.812;9.866;2022-10-16T15:53:44;8.20;;;1.90;;
20271;SDS011;10295;49.812;9.866;2022-10-16T15:56:12;6.45;;;1.85;;
20271;SDS011;10295;49.812;9.866;2022-10-16T15:58:40;6.88;;;1.88;;
20271;SDS011;10295;49.812;9.866;2022-10-16T16:01:07;6.43;;;1.60;;
20271;SDS011;10295;49.812;9.866;2022-10-16T16:03:36;7.40;;;1.90;;
20271;SDS011;10295;49.812;9.866;2022-10-16T16:06:07;6.55;;;2.00;;
20271;SDS011;10295;49.812;9.866;2022-10-16T16:08:34;8.10;;;1.83;;
20271;SDS011;10295;49.812;9.866;2022-10-16T16:11:03;9.13;;;1.83;;
20271;SDS011;10295;49.812;9.866;2022-10-16T16:13:31;5.32;;;1.77;;
20271;SDS011;10295;49.812;9.866;2022-10-16T16:15:58;7.03;;;2.35;;
20271;SDS011;10295;49.812;9.866;2022-10-16T16:18:25;7.68;;;2.30;;
20271;SDS011;10295;49.812;9.866;2022-10-16T16:20:54;9.23;;;2.72;;
20271;SDS011;10295;49.812;9.866;2022-10-16T16:23:21;11.13;;;3.67;;
20271;SDS011;10295;49.812;9.866;2022-10-16T16:28:31;10.45;;;3.20;;
20271;SDS011;10295;49.812;9.866;2022-10-16T16:30:58;10.10;;;3.03;;
20271;SDS011;10295;49.812;9.866;2022-10-16T16:36:23;7.68;;;3.10;;
20271;SDS011;10295;49.812;9.866;2022-10-16T16:38:51;8.40;;;3.20;;
20271;SDS011;10295;49.812;9.866;2022-10-16T16:41:19;10.37;;;3.47;;
20271;SDS011;10295;49.812;9.866;2022-10-16T16:43:46;11.93;;;4.00;;
20271;SDS011;10295;49.812;9.866;2022-10-16T16:46:14;11.07;;;4.57;;